Time;durP1;ratioP1;P1;durP2;ratioP2;P2;SDS_P1;SDS_P2;PMS_P1;PMS_P2;Temp;Humidity;BMP_temperature;BMP_pressure;BME280_temperature;BME280_humidity;BME280_pressure;Samples;Min_cycle;Max_cycle;Signal;HPM_P1;HPM_P2
2023/04/27 00:01:33;;;;;;;8.68;3.67;;;8.40;61.30;;;;;;5064033;28;20025;-67
2023/04/27 00:04:00;;;;;;;6.97;3.33;;;8.30;61.30;;;;;;5075702;28;20032;-67
2023/04/27 00:06:26;;;;;;;7.75;4.00;;;8.30;61.40;;;;;;5055451;28;20142;-67
2023/04/27 00:08:52;;;;;;;9.57;3.70;;;8.30;61.50;;;;;;5067376;28;20044;-66
2023/04/27 00:11:18;;;;;;;7.70;4.00;;;8.20;61.60;;;;;;5075859;28;20028;-67
2023/04/27 00:13:43;;;;;;;7.60;3.78;;;8.20;61.70;;;;;;5072839;28;20506;-66
2023/04/27 00:16:09;;;;;;;8.45;3.80;;;8.20;61.70;;;;;;5078470;28;20108;-67
2023/04/27 00:18:35;;;;;;;9.88;3.53;;;8.20;61.80;;;;;;5075330;28;20390;-67
2023/04/27 00:21:01;;;;;;;8.48;3.30;;;8.10;61.80;;;;;;5068505;28;20032;-67
2023/04/27 00:23:27;;;;;;;8.52;3.25;;;8.10;61.80;;;;;;5072203;28;20094;-67
2023/04/27 00:25:52;;;;;;;9.23;3.53;;;8.10;61.90;;;;;;5075493;28;20029;-67
2023/04/27 00:28:18;;;;;;;7.45;3.28;;;8.10;62.00;;;;;;5064666;28;20021;-67
2023/04/27 00:30:45;;;;;;;8.27;3.58;;;8.10;62.10;;;;;;5076243;28;20441;-67
2023/04/27 00:33:11;;;;;;;7.68;3.58;;;8.10;62.10;;;;;;5072064;28;20279;-67
2023/04/27 00:35:36;;;;;;;7.28;3.10;;;8.10;62.20;;;;;;5055849;28;20027;-67
2023/04/27 00:38:02;;;;;;;9.93;4.05;;;8.00;62.20;;;;;;5065835;28;20063;-67
2023/04/27 00:40:28;;;;;;;7.88;3.70;;;8.00;62.30;;;;;;5063622;28;20028;-67
2023/04/27 00:42:53;;;;;;;9.15;3.40;;;8.00;62.40;;;;;;5073899;28;20116;-67
2023/04/27 00:45:19;;;;;;;6.97;3.03;;;8.00;62.50;;;;;;5064959;28;20028;-67
2023/04/27 00:47:45;;;;;;;8.93;3.20;;;7.90;62.50;;;;;;5073578;28;20465;-67
2023/04/27 00:50:11;;;;;;;9.80;3.60;;;7.90;62.50;;;;;;5071568;28;20142;-67
2023/04/27 00:52:37;;;;;;;7.18;3.25;;;7.90;62.50;;;;;;5074490;28;20028;-67
2023/04/27 00:55:04;;;;;;;7.57;3.22;;;7.90;62.60;;;;;;5062039;28;20037;-67
2023/04/27 00:57:30;;;;;;;8.93;3.33;;;7.90;62.70;;;;;;5069374;28;20103;-67
2023/04/27 00:59:59;;;;;;;8.25;3.50;;;7.90;62.70;;;;;;5072537;28;20103;-67
2023/04/27 01:02:25;;;;;;;8.63;3.63;;;7.90;62.70;;;;;;5054293;28;20021;-67
2023/04/27 01:04:52;;;;;;;7.35;3.13;;;7.90;62.80;;;;;;5068627;28;20690;-66
2023/04/27 01:07:18;;;;;;;8.50;3.55;;;7.80;62.80;;;;;;5073094;28;20044;-67
2023/04/27 01:09:45;;;;;;;8.07;3.60;;;7.80;62.90;;;;;;5072053;28;20059;-67
2023/04/27 01:12:11;;;;;;;8.52;3.08;;;7.80;63.00;;;;;;5071285;28;20115;-67
2023/04/27 01:14:37;;;;;;;7.75;3.33;;;7.80;63.10;;;;;;5068288;28;20107;-67
2023/04/27 01:17:02;;;;;;;8.68;3.50;;;7.70;63.10;;;;;;5071760;28;20033;-67
2023/04/27 01:19:28;;;;;;;7.43;3.20;;;7.70;63.20;;;;;;5068455;28;20033;-67
2023/04/27 01:21:54;;;;;;;8.40;3.30;;;7.70;63.20;;;;;;5055757;28;20025;-66
2023/04/27 01:24:23;;;;;;;8.60;2.70;;;7.70;63.30;;;;;;5068939;28;20051;-72
2023/04/27 01:26:52;;;;;;;7.32;3.08;;;7.60;63.30;;;;;;5070612;28;20037;-71
2023/04/27 01:29:17;;;;;;;6.43;3.00;;;7.70;63.40;;;;;;5067548;28;20024;-71
2023/04/27 01:31:43;;;;;;;5.63;2.63;;;7.60;63.30;;;;;;5071577;28;20036;-71
2023/04/27 01:34:09;;;;;;;9.25;3.33;;;7.60;63.30;;;;;;5070542;28;20029;-72
2023/04/27 01:36:35;;;;;;;6.20;3.20;;;7.70;63.40;;;;;;5066480;28;20322;-72
2023/04/27 01:39:01;;;;;;;9.40;3.28;;;7.60;63.40;;;;;;5056136;28;20017;-71
2023/04/27 01:41:28;;;;;;;9.23;3.70;;;7.60;63.40;;;;;;5073707;28;20513;-72
2023/04/27 01:43:54;;;;;;;8.88;3.85;;;7.60;63.40;;;;;;5074602;28;20108;-72
2023/04/27 01:46:20;;;;;;;7.13;3.78;;;7.60;63.50;;;;;;5067830;28;20047;-71
2023/04/27 01:48:46;;;;;;;7.85;4.00;;;7.60;63.60;;;;;;5073544;28;20024;-72
2023/04/27 01:51:12;;;;;;;8.57;3.60;;;7.50;63.60;;;;;;5071721;28;20100;-72
2023/04/27 01:53:40;;;;;;;9.13;3.80;;;7.50;63.70;;;;;;5049017;28;20025;-72
2023/04/27 01:56:05;;;;;;;8.95;3.63;;;7.50;63.90;;;;;;5081255;28;20028;-71
2023/04/27 01:58:32;;;;;;;8.55;3.85;;;7.50;63.80;;;;;;5059452;28;20029;-72
2023/04/27 02:00:57;;;;;;;7.50;3.30;;;7.50;63.90;;;;;;5055878;28;20043;-71
2023/04/27 02:03:23;;;;;;;9.27;4.03;;;7.40;64.00;;;;;;5058753;28;20027;-71
2023/04/27 02:05:49;;;;;;;7.38;3.72;;;7.40;64.10;;;;;;5066315;28;20390;-71
2023/04/27 02:08:15;;;;;;;8.13;4.22;;;7.40;64.10;;;;;;5067485;28;20029;-71
2023/04/27 02:10:41;;;;;;;7.43;3.80;;;7.30;64.20;;;;;;5064107;28;20446;-71
2023/04/27 02:13:08;;;;;;;8.18;3.90;;;7.30;64.20;;;;;;5054027;28;20056;-72
2023/04/27 02:15:34;;;;;;;8.02;4.13;;;7.30;64.40;;;;;;5062118;28;20028;-72
2023/04/27 02:18:00;;;;;;;8.68;3.53;;;7.30;64.40;;;;;;5071032;28;20028;-70
2023/04/27 02:20:29;;;;;;;10.20;3.47;;;7.20;64.40;;;;;;5063168;28;20502;-71
2023/04/27 02:22:55;;;;;;;7.90;3.70;;;7.20;64.50;;;;;;5063173;28;20064;-71
2023/04/27 02:25:20;;;;;;;8.35;3.63;;;7.20;64.50;;;;;;5062523;28;20072;-71
2023/04/27 02:27:46;;;;;;;9.00;4.47;;;7.10;64.50;;;;;;5063916;28;20100;-74
2023/04/27 02:30:13;;;;;;;7.03;3.60;;;7.10;64.60;;;;;;5072489;28;20437;-74
2023/04/27 02:32:40;;;;;;;10.38;4.32;;;7.10;64.60;;;;;;5072116;28;20130;-73
2023/04/27 02:35:06;;;;;;;8.07;3.97;;;7.10;64.70;;;;;;5072509;28;20502;-73
2023/04/27 02:37:33;;;;;;;7.40;3.45;;;7.10;64.70;;;;;;5063983;28;20016;-71
2023/04/27 02:39:59;;;;;;;8.40;4.00;;;7.10;64.80;;;;;;5072791;28;20095;-71
2023/04/27 02:42:26;;;;;;;7.55;3.70;;;7.00;64.80;;;;;;5072867;28;20032;-71
2023/04/27 02:44:51;;;;;;;6.93;3.40;;;7.00;64.90;;;;;;5072436;28;20125;-71
2023/04/27 02:47:17;;;;;;;8.07;3.60;;;7.00;64.90;;;;;;5072329;28;20106;-70
2023/04/27 02:49:43;;;;;;;7.53;3.13;;;7.00;64.90;;;;;;5070971;28;20375;-70
2023/04/27 02:52:09;;;;;;;7.57;3.33;;;7.00;65.00;;;;;;5072499;28;20013;-71
2023/04/27 02:54:35;;;;;;;7.13;3.42;;;6.90;65.10;;;;;;5074507;28;20029;-71
2023/04/27 02:57:01;;;;;;;7.20;3.25;;;6.90;65.10;;;;;;5070796;28;20021;-71
2023/04/27 02:59:26;;;;;;;9.13;3.70;;;6.90;65.10;;;;;;5071558;28;20722;-71
2023/04/27 03:01:52;;;;;;;8.13;3.60;;;6.80;65.10;;;;;;5051506;28;20028;-71
2023/04/27 03:04:18;;;;;;;8.93;3.58;;;6.80;65.20;;;;;;5072692;28;20039;-72
2023/04/27 03:06:44;;;;;;;7.25;3.60;;;6.80;65.20;;;;;;5073515;28;20051;-72
2023/04/27 03:09:10;;;;;;;6.88;3.33;;;6.80;65.30;;;;;;5071737;28;20386;-72
2023/04/27 03:11:36;;;;;;;8.60;3.70;;;6.80;65.30;;;;;;5059612;28;20025;-72
2023/04/27 03:14:03;;;;;;;6.75;3.03;;;6.80;65.30;;;;;;5072074;28;20024;-72
2023/04/27 03:16:33;;;;;;;10.30;3.88;;;6.80;65.40;;;;;;5073054;28;20028;-72
2023/04/27 03:19:00;;;;;;;9.23;3.58;;;6.70;65.50;;;;;;5072349;28;20063;-73
2023/04/27 03:21:26;;;;;;;8.98;3.35;;;6.70;65.40;;;;;;5051583;28;20036;-72
2023/04/27 03:23:52;;;;;;;9.77;3.53;;;6.70;65.50;;;;;;5062638;28;20021;-72
2023/04/27 03:26:19;;;;;;;8.93;3.40;;;6.70;65.50;;;;;;5068538;28;20043;-72
2023/04/27 03:28:44;;;;;;;7.35;3.00;;;6.60;65.50;;;;;;5052243;28;20029;-71
2023/04/27 03:31:12;;;;;;;7.43;3.55;;;6.60;65.60;;;;;;5065335;28;20126;-71
2023/04/27 03:33:38;;;;;;;11.02;3.55;;;6.60;65.60;;;;;;5064422;28;20035;-72
2023/04/27 03:36:05;;;;;;;8.35;3.47;;;6.60;65.70;;;;;;5070907;28;20029;-72
2023/04/27 03:38:34;;;;;;;8.20;3.60;;;6.60;65.70;;;;;;5063525;28;20127;-72
2023/04/27 03:41:00;;;;;;;9.07;3.67;;;6.60;65.80;;;;;;5070538;28;20044;-71
2023/04/27 03:43:26;;;;;;;8.07;4.07;;;6.60;65.80;;;;;;5069299;28;20502;-72
2023/04/27 03:45:53;;;;;;;6.85;3.40;;;6.60;65.80;;;;;;5061469;28;20049;-72
2023/04/27 03:48:19;;;;;;;7.57;3.78;;;6.60;65.90;;;;;;5055951;28;20021;-72
2023/04/27 03:50:46;;;;;;;7.57;3.53;;;6.50;65.80;;;;;;5054859;28;20388;-72
2023/04/27 03:53:12;;;;;;;7.47;3.80;;;6.50;65.90;;;;;;5067573;28;20027;-72
2023/04/27 03:55:39;;;;;;;6.90;3.25;;;6.50;65.90;;;;;;5061207;28;20050;-72
2023/04/27 03:58:05;;;;;;;9.23;4.18;;;6.50;66.00;;;;;;5071084;28;20483;-72
2023/04/27 04:00:33;;;;;;;7.45;3.55;;;6.50;66.10;;;;;;5056057;28;20029;-72
2023/04/27 04:02:58;;;;;;;8.23;3.53;;;6.40;66.10;;;;;;5070183;28;20055;-72
2023/04/27 04:05:24;;;;;;;8.98;3.58;;;6.40;66.10;;;;;;5070121;28;20441;-71
2023/04/27 04:07:50;;;;;;;9.10;3.58;;;6.40;66.10;;;;;;5056419;28;20020;-71
2023/04/27 04:10:17;;;;;;;9.43;4.03;;;6.40;66.10;;;;;;5065996;28;20119;-71
2023/04/27 04:12:44;;;;;;;8.00;3.55;;;6.40;66.20;;;;;;5061208;28;20361;-71
2023/04/27 04:15:10;;;;;;;6.45;3.28;;;6.40;66.20;;;;;;5062838;28;20021;-71
2023/04/27 04:17:36;;;;;;;7.97;3.38;;;6.40;66.20;;;;;;5070521;28;20453;-72
2023/04/27 04:20:07;;;;;;;10.95;4.05;;;6.40;66.20;;;;;;5053918;28;20064;-71
2023/04/27 04:22:33;;;;;;;7.18;3.17;;;6.40;66.20;;;;;;5066519;28;20070;-71
2023/04/27 04:24:59;;;;;;;7.80;3.05;;;6.30;66.20;;;;;;5065247;28;20064;-72
2023/04/27 04:27:25;;;;;;;6.90;3.08;;;6.30;66.30;;;;;;5068353;28;20368;-72
2023/04/27 04:29:51;;;;;;;9.50;3.85;;;6.30;66.30;;;;;;5066519;28;20044;-72
2023/04/27 04:32:18;;;;;;;7.90;3.40;;;6.30;66.40;;;;;;5066863;28;20051;-71
2023/04/27 04:34:49;;;;;;;8.52;4.18;;;6.30;66.40;;;;;;5070354;28;20020;-72
2023/04/27 04:37:17;;;;;;;8.70;3.28;;;6.30;66.40;;;;;;5041967;28;20040;-72
2023/04/27 04:39:43;;;;;;;9.60;3.85;;;6.30;66.40;;;;;;5051591;28;20028;-72
2023/04/27 04:42:09;;;;;;;9.13;3.70;;;6.30;66.40;;;;;;5049966;28;20445;-71
2023/04/27 04:44:35;;;;;;;8.20;3.70;;;6.30;66.40;;;;;;5054696;28;20020;-71
2023/04/27 04:47:01;;;;;;;8.02;3.70;;;6.30;66.50;;;;;;5069907;28;20033;-71
2023/04/27 04:49:27;;;;;;;8.00;3.53;;;6.40;66.50;;;;;;5071924;28;20369;-71
2023/04/27 04:51:53;;;;;;;7.18;3.60;;;6.40;66.50;;;;;;5070936;28;20012;-71
2023/04/27 04:54:19;;;;;;;9.27;3.67;;;6.40;66.50;;;;;;5063830;28;20048;-71
2023/04/27 04:56:46;;;;;;;8.30;3.85;;;6.40;66.50;;;;;;5065235;28;20017;-71
2023/04/27 04:59:12;;;;;;;8.77;3.97;;;6.40;66.40;;;;;;5053734;28;20131;-72
2023/04/27 05:01:38;;;;;;;8.07;3.90;;;6.40;66.40;;;;;;5068931;28;20097;-71
2023/04/27 05:04:04;;;;;;;9.40;3.42;;;6.50;66.50;;;;;;5062016;28;20029;-72
2023/04/27 05:06:31;;;;;;;7.35;3.65;;;6.50;66.50;;;;;;5066637;28;20417;-71
2023/04/27 05:08:56;;;;;;;8.00;4.13;;;6.50;66.60;;;;;;5066545;28;20024;-71
2023/04/27 05:11:22;;;;;;;7.47;3.83;;;6.50;66.60;;;;;;5072434;28;20048;-71
2023/04/27 05:13:48;;;;;;;15.10;4.32;;;6.60;66.70;;;;;;5063338;28;20442;-72
2023/04/27 05:16:13;;;;;;;10.48;4.22;;;6.60;66.70;;;;;;5070450;28;20458;-71
2023/04/27 05:18:40;;;;;;;9.60;4.40;;;6.60;66.60;;;;;;5065490;28;20079;-72
2023/04/27 05:21:16;;;;;;;9.05;4.50;;;6.70;66.70;;;;;;5061905;28;20211;-72
2023/04/27 05:23:42;;;;;;;8.70;4.25;;;6.80;66.80;;;;;;5066524;28;20127;-72
2023/04/27 05:26:15;;;;;;;9.18;4.45;;;6.80;66.60;;;;;;5060177;28;20188;-73
2023/04/27 05:28:41;;;;;;;9.88;4.50;;;7.00;66.60;;;;;;5060720;28;20475;-73
2023/04/27 05:31:07;;;;;;;9.40;4.70;;;7.70;65.60;;;;;;5056107;28;20029;-72
2023/04/27 05:33:33;;;;;;;8.57;4.68;;;8.50;64.00;;;;;;5063537;28;20071;-73
2023/04/27 05:35:59;;;;;;;10.95;4.80;;;9.20;62.60;;;;;;5063883;28;20449;-73
2023/04/27 05:38:25;;;;;;;10.18;4.93;;;9.90;61.40;;;;;;5058608;28;20409;-73
2023/04/27 05:40:57;;;;;;;7.95;4.70;;;10.60;60.10;;;;;;5057894;28;20024;-73
2023/04/27 05:43:23;;;;;;;8.85;4.80;;;11.30;58.70;;;;;;5076932;28;20028;-73
2023/04/27 05:45:50;;;;;;;8.75;5.20;;;12.00;57.70;;;;;;5066668;28;20028;-73
2023/04/27 05:48:16;;;;;;;9.10;4.88;;;12.50;56.70;;;;;;5063738;28;20040;-72
2023/04/27 05:50:41;;;;;;;9.18;5.22;;;13.10;55.80;;;;;;5073417;28;20046;-73
2023/04/27 05:53:07;;;;;;;9.80;5.47;;;13.50;54.90;;;;;;5069314;28;20029;-72
2023/04/27 05:55:33;;;;;;;8.75;4.80;;;13.80;54.40;;;;;;5072928;28;20406;-73
2023/04/27 05:58:00;;;;;;;8.70;4.82;;;14.10;53.80;;;;;;5070555;28;20028;-72
2023/04/27 06:00:27;;;;;;;9.77;5.03;;;14.50;53.00;;;;;;5063973;28;20025;-72
2023/04/27 06:02:53;;;;;;;8.90;4.93;;;14.70;52.40;;;;;;5060086;28;20024;-72
2023/04/27 06:05:20;;;;;;;8.00;4.97;;;14.80;51.90;;;;;;5059954;28;20131;-71
2023/04/27 06:07:46;;;;;;;8.70;4.60;;;14.90;51.60;;;;;;5069658;28;20024;-72
2023/04/27 06:10:12;;;;;;;8.40;4.82;;;14.60;51.60;;;;;;5060374;28;20017;-71
2023/04/27 06:12:38;;;;;;;8.88;4.88;;;14.20;52.20;;;;;;5061603;28;20075;-71
2023/04/27 06:15:08;;;;;;;7.93;4.63;;;13.90;52.90;;;;;;5058734;28;20438;-72
2023/04/27 06:17:38;;;;;;;8.07;3.97;;;13.60;53.30;;;;;;5059569;28;20036;-71
2023/04/27 06:20:08;;;;;;;8.30;4.30;;;13.40;53.50;;;;;;5056761;28;20032;-71
2023/04/27 06:22:37;;;;;;;9.88;4.13;;;13.20;53.50;;;;;;5065346;28;20107;-72
2023/04/27 06:25:07;;;;;;;9.80;4.07;;;13.00;53.60;;;;;;5058731;28;20059;-72
2023/04/27 06:27:33;;;;;;;9.93;4.18;;;12.90;53.50;;;;;;5069195;28;20016;-71
2023/04/27 06:29:59;;;;;;;10.00;3.95;;;12.90;53.50;;;;;;5055182;28;20031;-70
2023/04/27 06:32:25;;;;;;;11.65;4.40;;;12.80;53.40;;;;;;5070275;28;20035;-69
2023/04/27 06:34:51;;;;;;;13.10;4.22;;;12.80;53.30;;;;;;5057079;28;20016;-73
2023/04/27 06:37:16;;;;;;;11.57;4.03;;;12.90;53.10;;;;;;5052626;28;20070;-71
2023/04/27 06:39:45;;;;;;;8.85;3.85;;;13.00;53.00;;;;;;5064640;28;20136;-70
2023/04/27 06:42:11;;;;;;;9.15;3.75;;;13.00;52.70;;;;;;5073692;28;20028;-70
2023/04/27 06:44:37;;;;;;;7.07;3.10;;;13.10;52.60;;;;;;5073549;28;20016;-70
2023/04/27 06:47:04;;;;;;;6.60;2.90;;;13.10;52.50;;;;;;5072547;28;20443;-71
2023/04/27 06:49:30;;;;;;;7.95;3.13;;;13.20;52.20;;;;;;5066569;28;20097;-73
2023/04/27 06:51:56;;;;;;;7.78;2.88;;;13.30;51.90;;;;;;5073301;28;20103;-72
2023/04/27 06:54:22;;;;;;;7.75;3.40;;;13.30;51.60;;;;;;5064757;28;20032;-70
2023/04/27 06:56:47;;;;;;;7.93;3.22;;;13.40;51.40;;;;;;5063987;28;20404;-71
2023/04/27 06:59:13;;;;;;;9.02;3.47;;;13.50;51.30;;;;;;5069714;28;20476;-73
2023/04/27 07:01:39;;;;;;;7.65;3.17;;;13.60;51.20;;;;;;5062820;28;20036;-72
2023/04/27 07:04:05;;;;;;;9.10;3.33;;;13.70;50.90;;;;;;5060039;28;20066;-72
2023/04/27 07:06:31;;;;;;;7.45;3.17;;;13.70;50.70;;;;;;5060443;28;20116;-73
2023/04/27 07:08:57;;;;;;;7.53;2.80;;;13.80;50.60;;;;;;5068674;28;20112;-74
2023/04/27 07:11:23;;;;;;;9.55;2.90;;;13.80;50.60;;;;;;5061083;28;20158;-73
2023/04/27 07:13:49;;;;;;;6.63;3.08;;;13.80;50.40;;;;;;5056756;28;20028;-70
2023/04/27 07:16:15;;;;;;;7.68;3.00;;;14.00;50.10;;;;;;5068357;28;20104;-74
2023/04/27 07:18:41;;;;;;;6.50;2.45;;;14.10;49.90;;;;;;5060435;28;20025;-73
2023/04/27 07:21:08;;;;;;;6.55;2.85;;;14.20;49.70;;;;;;5060016;28;20075;-72
2023/04/27 07:23:33;;;;;;;7.60;2.58;;;14.30;49.30;;;;;;5065692;28;20033;-73
2023/04/27 07:25:59;;;;;;;6.40;2.50;;;14.40;49.00;;;;;;5067309;28;20371;-72
2023/04/27 07:28:27;;;;;;;5.75;2.17;;;14.50;48.70;;;;;;5070676;28;20461;-72
2023/04/27 07:30:53;;;;;;;6.88;2.20;;;14.60;48.40;;;;;;5084179;28;20029;-73
2023/04/27 07:33:19;;;;;;;5.55;2.30;;;14.80;48.10;;;;;;5067336;28;20029;-73
2023/04/27 07:35:44;;;;;;;5.72;2.28;;;14.90;47.80;;;;;;5073234;28;20032;-73
2023/04/27 07:38:10;;;;;;;5.35;2.08;;;15.00;47.50;;;;;;5054523;28;20032;-73
2023/04/27 07:40:36;;;;;;;5.47;2.10;;;15.20;47.40;;;;;;5061916;28;20029;-72
2023/04/27 07:43:02;;;;;;;4.85;2.13;;;15.30;47.10;;;;;;5072753;28;20387;-71
2023/04/27 07:45:32;;;;;;;5.15;2.33;;;15.40;46.80;;;;;;5061032;28;20029;-71
2023/04/27 07:47:59;;;;;;;6.30;2.17;;;15.50;46.50;;;;;;5056429;28;20116;-72
2023/04/27 07:50:28;;;;;;;5.07;2.20;;;15.60;46.30;;;;;;5063910;28;20021;-72
2023/04/27 07:52:55;;;;;;;5.57;2.03;;;15.60;46.00;;;;;;5074222;28;20027;-73
2023/04/27 07:55:22;;;;;;;5.47;2.33;;;15.80;46.00;;;;;;5073929;28;20040;-71
2023/04/27 07:57:55;;;;;;;4.68;1.92;;;15.90;45.70;;;;;;5063826;28;20115;-71
2023/04/27 08:00:22;;;;;;;5.30;1.85;;;16.00;45.10;;;;;;5072513;28;20068;-73
2023/04/27 08:02:49;;;;;;;6.65;1.58;;;15.90;45.10;;;;;;5073383;28;20048;-73
2023/04/27 08:05:15;;;;;;;6.03;2.15;;;15.90;44.80;;;;;;5060028;28;20040;-72
2023/04/27 08:07:40;;;;;;;7.32;1.90;;;15.90;44.40;;;;;;5073312;28;20334;-73
2023/04/27 08:10:07;;;;;;;6.28;2.20;;;15.80;44.40;;;;;;5072218;28;20410;-72
2023/04/27 08:12:33;;;;;;;4.90;2.10;;;15.80;44.30;;;;;;5072391;28;20024;-73
2023/04/27 08:14:59;;;;;;;5.45;1.80;;;15.90;44.00;;;;;;5074181;28;20462;-73
2023/04/27 08:17:25;;;;;;;4.18;1.83;;;15.90;43.90;;;;;;5072950;28;20025;-73
2023/04/27 08:19:51;;;;;;;5.40;2.13;;;15.90;43.60;;;;;;5072203;28;20094;-73
2023/04/27 08:22:17;;;;;;;4.15;1.95;;;16.00;43.40;;;;;;5075302;28;20032;-73
2023/04/27 08:24:43;;;;;;;4.75;1.98;;;16.10;43.80;;;;;;5077089;28;20035;-73
2023/04/27 08:27:10;;;;;;;10.65;2.92;;;16.10;43.10;;;;;;5078633;28;20033;-73
2023/04/27 08:29:35;;;;;;;5.88;2.00;;;16.10;43.10;;;;;;5076338;28;20032;-73
2023/04/27 08:32:03;;;;;;;5.32;1.98;;;16.20;42.60;;;;;;5060517;28;20020;-72
2023/04/27 08:34:30;;;;;;;5.65;1.83;;;16.20;42.50;;;;;;5075804;28;20028;-74
2023/04/27 08:36:56;;;;;;;5.40;1.75;;;16.20;42.20;;;;;;5060057;28;20037;-74
2023/04/27 08:39:23;;;;;;;5.00;1.77;;;16.10;42.10;;;;;;5086563;28;20311;-73
2023/04/27 08:41:48;;;;;;;6.85;1.98;;;16.00;42.10;;;;;;5076649;28;20020;-74
2023/04/27 08:44:14;;;;;;;6.20;2.25;;;15.90;42.10;;;;;;5074345;28;20051;-74
2023/04/27 08:46:40;;;;;;;3.47;1.70;;;15.90;42.00;;;;;;5057247;28;20024;-73
2023/04/27 08:49:06;;;;;;;6.13;2.10;;;15.80;41.80;;;;;;5057753;28;20357;-73
2023/04/27 08:51:33;;;;;;;7.70;2.10;;;15.80;41.70;;;;;;5052267;28;20033;-74
2023/04/27 08:53:59;;;;;;;5.75;2.15;;;15.80;41.60;;;;;;5076959;28;20021;-74
2023/04/27 08:56:26;;;;;;;5.70;2.28;;;15.90;41.70;;;;;;5076452;28;20032;-73
2023/04/27 08:58:53;;;;;;;6.35;2.33;;;16.00;41.70;;;;;;5076207;28;20033;-74
2023/04/27 09:01:21;;;;;;;6.35;2.50;;;16.10;41.80;;;;;;5072651;28;20659;-74
2023/04/27 09:03:47;;;;;;;5.00;1.98;;;16.10;41.80;;;;;;5076884;28;20392;-73
2023/04/27 09:06:13;;;;;;;4.80;2.10;;;16.20;41.70;;;;;;5075318;28;20037;-73
2023/04/27 09:08:47;;;;;;;4.80;2.00;;;16.30;41.50;;;;;;5049251;28;20028;-73
2023/04/27 09:11:15;;;;;;;5.38;1.92;;;16.40;41.20;;;;;;5069520;28;20111;-74
2023/04/27 09:13:44;;;;;;;5.60;2.30;;;16.50;41.20;;;;;;5065917;28;20036;-73
2023/04/27 09:16:12;;;;;;;6.15;2.42;;;16.50;41.30;;;;;;5067205;28;20032;-74
2023/04/27 09:18:42;;;;;;;5.35;2.25;;;16.50;41.40;;;;;;5067245;28;20024;-74
2023/04/27 09:21:08;;;;;;;6.18;2.35;;;16.50;41.40;;;;;;5073701;28;20033;-74
2023/04/27 09:23:36;;;;;;;5.30;2.38;;;16.60;41.40;;;;;;5071023;28;20134;-74
2023/04/27 09:26:09;;;;;;;5.78;2.50;;;16.60;41.40;;;;;;5074177;28;20389;-73
2023/04/27 09:28:39;;;;;;;7.68;2.50;;;16.70;41.50;;;;;;5057907;28;20433;-73
2023/04/27 09:31:07;;;;;;;5.85;2.28;;;16.80;41.30;;;;;;5073983;28;20056;-73
2023/04/27 09:33:35;;;;;;;5.25;1.80;;;16.90;40.90;;;;;;5069899;28;20036;-73
2023/04/27 09:36:07;;;;;;;6.03;2.00;;;16.90;40.40;;;;;;5067557;28;20051;-74
2023/04/27 09:38:33;;;;;;;4.78;2.00;;;17.00;40.00;;;;;;5073975;28;20111;-71
2023/04/27 09:40:59;;;;;;;6.35;1.95;;;17.10;40.00;;;;;;5064814;28;20090;-71
2023/04/27 09:43:27;;;;;;;4.30;1.92;;;17.00;39.70;;;;;;5057381;28;20131;-72
2023/04/27 09:45:54;;;;;;;5.00;2.30;;;17.00;39.50;;;;;;5070804;28;20298;-72
2023/04/27 09:48:21;;;;;;;4.78;2.25;;;17.00;39.50;;;;;;5064737;28;20044;-73
2023/04/27 09:50:49;;;;;;;4.63;2.00;;;17.10;39.20;;;;;;5074117;28;20029;-72
2023/04/27 09:53:18;;;;;;;6.53;2.40;;;17.20;39.20;;;;;;5066566;28;20063;-73
2023/04/27 09:55:52;;;;;;;5.10;2.15;;;17.30;38.90;;;;;;5072262;28;20031;-73
2023/04/27 09:58:50;;;;;;;5.80;2.55;;;17.30;38.60;;;;;;5054907;28;20330;-73
2023/04/27 10:01:40;;;;;;;4.97;2.30;;;17.30;38.50;;;;;;5071263;28;20035;-73
2023/04/27 10:04:20;;;;;;;5.70;2.30;;;17.30;38.40;;;;;;5076011;28;20039;-73
2023/04/27 10:07:07;;;;;;;6.03;2.65;;;17.20;38.90;;;;;;5074923;28;20125;-73
2023/04/27 10:09:49;;;;;;;5.03;2.53;;;17.20;38.20;;;;;;5058068;28;20118;-73
2023/04/27 10:12:20;;;;;;;5.43;2.40;;;17.30;38.30;;;;;;5076108;28;20036;-73
2023/04/27 10:14:53;;;;;;;5.47;2.47;;;17.30;38.30;;;;;;5074904;28;20036;-73
2023/04/27 10:17:24;;;;;;;4.05;2.10;;;17.50;38.30;;;;;;5074585;28;20028;-73
2023/04/27 10:20:06;;;;;;;5.75;2.80;;;17.60;38.20;;;;;;5075730;28;20036;-73
2023/04/27 10:22:46;;;;;;;6.78;2.58;;;17.80;38.00;;;;;;5073560;28;20028;-73
2023/04/27 10:25:17;;;;;;;6.53;2.70;;;17.80;37.70;;;;;;5063610;28;20016;-73
2023/04/27 10:27:42;;;;;;;5.53;2.45;;;17.90;37.90;;;;;;5075378;28;20024;-73
2023/04/27 10:30:12;;;;;;;7.35;2.90;;;18.00;37.90;;;;;;5057658;28;20314;-73
2023/04/27 10:32:56;;;;;;;6.05;2.63;;;17.90;37.90;;;;;;5072822;28;20021;-73
2023/04/27 10:35:39;;;;;;;6.75;2.72;;;17.90;37.80;;;;;;5074257;28;20024;-73
2023/04/27 10:38:06;;;;;;;5.03;2.40;;;17.80;37.50;;;;;;5074201;28;20085;-73
2023/04/27 10:40:33;;;;;;;7.38;2.67;;;17.80;37.60;;;;;;5073997;28;20032;-73
2023/04/27 10:43:12;;;;;;;5.38;2.50;;;17.80;37.60;;;;;;5073911;28;20024;-73
2023/04/27 10:45:39;;;;;;;6.00;2.67;;;17.80;38.20;;;;;;5073284;28;20032;-73
2023/04/27 10:48:06;;;;;;;5.55;2.72;;;17.90;37.80;;;;;;5074973;28;20194;-73
2023/04/27 10:50:32;;;;;;;6.55;3.10;;;18.00;37.60;;;;;;5057713;28;20020;-73
2023/04/27 10:53:03;;;;;;;6.22;2.88;;;18.00;37.60;;;;;;5073304;28;20453;-73
2023/04/27 10:55:30;;;;;;;6.28;2.78;;;18.00;37.50;;;;;;5056905;28;20051;-73
2023/04/27 10:57:57;;;;;;;6.38;2.60;;;18.00;37.70;;;;;;5075086;28;20032;-73
2023/04/27 11:00:31;;;;;;;5.30;2.30;;;18.00;37.70;;;;;;5074164;28;20031;-73
2023/04/27 11:03:10;;;;;;;6.30;2.78;;;18.10;37.60;;;;;;5066774;28;20111;-73
2023/04/27 11:05:36;;;;;;;6.97;2.72;;;18.20;37.40;;;;;;5071946;28;20040;-73
2023/04/27 11:08:13;;;;;;;5.10;2.45;;;18.20;37.60;;;;;;5073769;28;20024;-73
2023/04/27 11:10:44;;;;;;;6.00;2.60;;;18.30;37.40;;;;;;5074593;28;20115;-73
2023/04/27 11:13:12;;;;;;;6.03;2.50;;;18.40;37.50;;;;;;5072938;28;20032;-73
2023/04/27 11:15:45;;;;;;;6.78;2.70;;;18.40;37.30;;;;;;5073646;28;20075;-73
2023/04/27 11:18:11;;;;;;;9.95;3.10;;;18.40;37.00;;;;;;5075089;28;20036;-73
2023/04/27 11:20:36;;;;;;;6.40;2.72;;;18.50;37.00;;;;;;5073243;28;20055;-73
2023/04/27 11:23:02;;;;;;;6.57;2.65;;;18.50;36.80;;;;;;5073511;28;20020;-73
2023/04/27 11:25:28;;;;;;;6.82;2.70;;;18.50;36.90;;;;;;5055872;28;20072;-73
2023/04/27 11:27:54;;;;;;;5.95;2.53;;;18.60;36.90;;;;;;5073558;28;20024;-73
2023/04/27 11:30:22;;;;;;;7.00;2.95;;;18.60;36.80;;;;;;5074591;28;20437;-73
2023/04/27 11:32:48;;;;;;;6.70;2.70;;;18.60;36.40;;;;;;5074472;28;20037;-73
2023/04/27 11:35:14;;;;;;;8.05;3.33;;;18.60;36.30;;;;;;5069450;28;20404;-74
2023/04/27 11:37:41;;;;;;;5.80;2.90;;;18.60;36.30;;;;;;5066547;28;20020;-73
2023/04/27 11:40:08;;;;;;;6.50;2.88;;;18.60;36.20;;;;;;5071070;28;20112;-73
2023/04/27 11:42:34;;;;;;;6.68;2.80;;;18.60;36.10;;;;;;5063369;28;20033;-72
2023/04/27 11:45:04;;;;;;;8.23;3.28;;;18.60;36.10;;;;;;5060229;28;20029;-74
2023/04/27 11:47:32;;;;;;;7.57;3.63;;;18.50;36.10;;;;;;5065530;28;20055;-74
2023/04/27 11:50:00;;;;;;;5.13;2.60;;;18.50;36.00;;;;;;5066408;28;20063;-73
2023/04/27 11:52:33;;;;;;;6.18;2.45;;;18.40;36.00;;;;;;5072771;28;20056;-73
2023/04/27 11:55:01;;;;;;;6.78;3.20;;;18.40;36.00;;;;;;5068317;28;20495;-72
2023/04/27 11:57:29;;;;;;;6.97;3.15;;;18.40;35.90;;;;;;5071827;28;20472;-70
2023/04/27 12:00:00;;;;;;;8.82;3.03;;;18.40;36.10;;;;;;5052108;28;20032;-70
2023/04/27 12:02:30;;;;;;;6.05;2.72;;;18.30;36.10;;;;;;5074189;28;20052;-70
2023/04/27 12:04:58;;;;;;;7.10;2.67;;;18.20;35.90;;;;;;5065902;28;20033;-71
2023/04/27 12:07:24;;;;;;;7.15;2.88;;;18.20;36.10;;;;;;5063606;28;20039;-71
2023/04/27 12:09:50;;;;;;;5.78;2.72;;;18.10;36.30;;;;;;5072403;28;20021;-70
2023/04/27 12:12:21;;;;;;;6.10;2.78;;;18.10;36.40;;;;;;5076967;28;20035;-70
2023/04/27 12:14:48;;;;;;;6.03;2.65;;;18.00;36.30;;;;;;5058366;28;20414;-70
2023/04/27 12:17:13;;;;;;;6.78;3.10;;;17.90;36.60;;;;;;5059081;28;20144;-71
2023/04/27 12:19:39;;;;;;;6.25;3.15;;;17.90;36.80;;;;;;5064266;28;20086;-71
2023/04/27 12:22:05;;;;;;;5.68;2.50;;;17.90;36.80;;;;;;5053067;28;20055;-72
2023/04/27 12:24:33;;;;;;;4.97;2.38;;;17.90;36.70;;;;;;5061824;28;20116;-71
2023/04/27 12:26:58;;;;;;;6.15;2.70;;;17.90;36.40;;;;;;5067692;28;20024;-70
2023/04/27 12:29:24;;;;;;;5.97;2.72;;;17.80;36.10;;;;;;5053995;28;20024;-71
2023/04/27 12:31:50;;;;;;;6.45;2.88;;;17.80;36.20;;;;;;5072235;28;20107;-71
2023/04/27 12:34:17;;;;;;;6.75;2.72;;;17.70;36.20;;;;;;5070266;28;20126;-71
2023/04/27 12:36:42;;;;;;;7.53;2.95;;;17.60;36.20;;;;;;5069230;28;20089;-71
2023/04/27 12:39:19;;;;;;;8.65;3.08;;;17.60;36.10;;;;;;5065639;28;20032;-72
2023/04/27 12:41:47;;;;;;;6.07;2.75;;;17.60;36.10;;;;;;5060832;28;20400;-69
2023/04/27 12:44:14;;;;;;;5.85;2.40;;;17.50;36.10;;;;;;5070267;28;20025;-72
2023/04/27 12:46:40;;;;;;;6.18;2.55;;;17.40;36.20;;;;;;5072573;28;20086;-71
2023/04/27 12:49:07;;;;;;;5.68;2.47;;;17.30;36.40;;;;;;5072895;28;20430;-72
2023/04/27 12:51:33;;;;;;;6.07;2.63;;;17.30;37.10;;;;;;5070564;28;20017;-70